createdAt,value
2022-08-29T00:00:33.626Z,61.61
2022-08-29T00:03:08.368Z,61.55
2022-08-29T00:05:40.078Z,62.04
2022-08-29T00:08:11.815Z,61.81
2022-08-29T00:10:41.724Z,61.73
2022-08-29T00:13:13.484Z,61.89
2022-08-29T00:15:44.977Z,61.92
2022-08-29T00:18:15.236Z,61.89
2022-08-29T00:20:44.388Z,61.85
2022-08-29T00:23:14.027Z,62.10
2022-08-29T00:25:43.339Z,61.87
2022-08-29T00:28:13.347Z,62.21
2022-08-29T00:30:43.157Z,61.94
2022-08-29T00:33:12.177Z,61.83
2022-08-29T00:35:43.213Z,61.55
2022-08-29T00:38:14.957Z,61.68
2022-08-29T00:40:51.731Z,61.92
2022-08-29T00:43:25.798Z,62.23
2022-08-29T00:46:04.005Z,62.20
2022-08-29T00:48:36.473Z,62.21
2022-08-29T00:51:09.289Z,62.12
2022-08-29T00:53:42.259Z,62.45
2022-08-29T00:56:14.181Z,62.38
2022-08-29T00:58:47.759Z,62.41
2022-08-29T01:01:17.165Z,62.31
2022-08-29T01:03:48.634Z,62.52
2022-08-29T01:06:17.337Z,62.54
2022-08-29T01:08:46.305Z,62.33
2022-08-29T01:11:36.238Z,62.55
2022-08-29T01:14:06.630Z,62.31
2022-08-29T01:16:37.145Z,62.30
2022-08-29T01:19:13.182Z,62.78
2022-08-29T01:21:48.619Z,62.62
2022-08-29T01:24:37.134Z,62.70
2022-08-29T01:27:05.468Z,62.60
2022-08-29T01:29:34.850Z,62.78
2022-08-29T01:32:03.344Z,62.87
2022-08-29T01:34:32.514Z,63.02
2022-08-29T01:37:03.013Z,63.08
2022-08-29T01:39:35.938Z,63.03
2022-08-29T01:42:07.745Z,63.17
2022-08-29T01:44:37.485Z,63.22
2022-08-29T01:47:07.190Z,63.12
2022-08-29T01:49:40.760Z,63.06
2022-08-29T01:52:10.301Z,63.31
2022-08-29T01:54:41.746Z,63.25
2022-08-29T01:57:13.079Z,63.42
2022-08-29T01:59:43.310Z,63.30
2022-08-29T02:02:17.318Z,63.30
2022-08-29T02:04:48.882Z,63.53
2022-08-29T02:07:19.504Z,63.49
2022-08-29T02:09:49.800Z,63.38
2022-08-29T02:12:20.843Z,63.56
2022-08-29T02:14:49.423Z,63.22
2022-08-29T02:17:18.971Z,63.19
2022-08-29T02:19:47.548Z,63.40
2022-08-29T02:22:17.801Z,63.35
2022-08-29T02:24:46.289Z,63.51
2022-08-29T02:27:16.838Z,63.54
2022-08-29T02:29:45.281Z,63.54
2022-08-29T02:32:15.914Z,63.80
2022-08-29T02:34:47.528Z,63.68
2022-08-29T02:37:17.991Z,63.65
2022-08-29T02:39:46.650Z,63.85
2022-08-29T02:42:16.853Z,63.85
2022-08-29T02:44:45.622Z,64.05
2022-08-29T02:47:14.386Z,64.00
2022-08-29T02:49:43.765Z,64.17
2022-08-29T02:52:13.363Z,64.40
2022-08-29T02:54:41.702Z,64.48
2022-08-29T02:57:10.955Z,64.68
2022-08-29T02:59:40.630Z,64.75
2022-08-29T03:02:10.054Z,65.28
2022-08-29T03:04:38.657Z,65.13
2022-08-29T03:07:06.975Z,65.51
2022-08-29T03:09:36.318Z,65.79
2022-08-29T03:12:05.173Z,65.41
2022-08-29T03:14:34.466Z,65.49
2022-08-29T03:17:04.254Z,65.76
2022-08-29T03:19:37.388Z,66.12
2022-08-29T03:22:06.455Z,66.45
2022-08-29T03:24:36.025Z,66.99
2022-08-29T03:27:05.389Z,67.09
2022-08-29T03:29:34.192Z,67.41
2022-08-29T03:32:05.311Z,67.76
2022-08-29T03:34:34.214Z,68.18
2022-08-29T03:37:02.539Z,68.47
2022-08-29T03:39:32.186Z,68.67
2022-08-29T03:42:00.565Z,68.53
2022-08-29T03:44:29.580Z,68.98
2022-08-29T03:46:58.031Z,69.29
2022-08-29T03:49:28.833Z,69.60
2022-08-29T03:51:57.639Z,69.75
2022-08-29T03:54:26.054Z,69.74
2022-08-29T03:56:54.853Z,69.66
2022-08-29T03:59:24.229Z,70.04
2022-08-29T04:01:53.353Z,70.23
2022-08-29T04:04:39.826Z,70.70
2022-08-29T04:07:13.161Z,70.65
2022-08-29T04:09:43.154Z,70.71
2022-08-29T04:12:13.175Z,70.64
2022-08-29T04:14:43.139Z,70.89
2022-08-29T04:17:12.316Z,71.22
2022-08-29T04:19:41.410Z,71.25
2022-08-29T04:22:11.113Z,71.61
2022-08-29T04:24:40.141Z,71.96
2022-08-29T04:27:08.459Z,71.97
2022-08-29T04:29:38.626Z,71.93
2022-08-29T04:32:07.442Z,71.85
2022-08-29T04:34:36.113Z,72.36
2022-08-29T04:37:04.806Z,72.49
2022-08-29T04:39:35.729Z,72.46
2022-08-29T04:42:04.349Z,72.39
2022-08-29T04:44:34.449Z,72.30
2022-08-29T04:47:02.742Z,72.45
2022-08-29T04:49:31.827Z,72.40
2022-08-29T04:52:00.173Z,72.21
2022-08-29T04:54:29.527Z,72.36
2022-08-29T04:57:05.006Z,72.14
2022-08-29T04:59:34.037Z,72.38
2022-08-29T05:02:02.543Z,72.08
2022-08-29T05:04:31.829Z,72.33
2022-08-29T05:07:00.290Z,72.04
2022-08-29T05:09:29.572Z,71.88
2022-08-29T05:11:59.491Z,72.19
2022-08-29T05:14:28.380Z,71.90
2022-08-29T05:16:57.102Z,71.90
2022-08-29T05:19:25.390Z,72.34
2022-08-29T05:21:58.308Z,72.19
2022-08-29T05:24:26.615Z,72.31
2022-08-29T05:26:55.639Z,72.75
2022-08-29T05:29:25.503Z,72.77
2022-08-29T05:31:53.826Z,72.99
2022-08-29T05:34:34.034Z,73.61
2022-08-29T05:37:05.247Z,73.53
2022-08-29T05:39:34.561Z,74.29
2022-08-29T05:42:03.309Z,74.66
2022-08-29T05:44:35.378Z,75.22
2022-08-29T05:47:05.368Z,75.39
2022-08-29T05:49:37.172Z,75.21
2022-08-29T05:52:06.637Z,75.67
2022-08-29T05:54:37.918Z,75.85
2022-08-29T05:57:06.861Z,75.87
2022-08-29T05:59:36.977Z,76.15
2022-08-29T06:02:08.459Z,76.22
2022-08-29T06:04:36.894Z,76.21
2022-08-29T06:07:06.978Z,76.30
2022-08-29T06:09:36.435Z,76.09
2022-08-29T06:12:06.182Z,76.31
2022-08-29T06:14:36.215Z,76.13
2022-08-29T06:17:08.080Z,76.43
2022-08-29T06:19:39.473Z,76.84
2022-08-29T06:22:10.284Z,76.05
2022-08-29T06:24:44.383Z,76.36
2022-08-29T06:27:14.710Z,76.42
2022-08-29T06:29:44.447Z,76.08
2022-08-29T06:32:13.431Z,76.21
2022-08-29T06:34:42.173Z,76.03
2022-08-29T06:37:10.778Z,76.14
2022-08-29T06:39:39.806Z,76.16
2022-08-29T06:42:08.456Z,76.08
2022-08-29T06:44:40.188Z,76.17
2022-08-29T06:47:12.734Z,76.33
2022-08-29T06:49:41.329Z,76.46
2022-08-29T06:52:10.023Z,76.76
2022-08-29T06:54:38.854Z,76.71
2022-08-29T06:57:07.303Z,76.43
2022-08-29T06:59:36.884Z,76.33
2022-08-29T07:02:05.457Z,76.27
2022-08-29T07:04:35.625Z,76.00
2022-08-29T07:07:05.249Z,75.77
2022-08-29T07:09:34.383Z,75.59
2022-08-29T07:12:03.114Z,75.66
2022-08-29T07:14:32.001Z,75.43
2022-08-29T07:17:00.707Z,75.26
2022-08-29T07:19:29.824Z,75.30
2022-08-29T07:22:00.527Z,75.18
2022-08-29T07:24:29.555Z,74.95
2022-08-29T07:26:57.923Z,74.67
2022-08-29T07:29:27.067Z,74.68
2022-08-29T07:31:55.896Z,75.05
2022-08-29T07:34:24.292Z,74.97
2022-08-29T07:36:53.492Z,74.66
2022-08-29T07:39:24.562Z,74.54
2022-08-29T07:41:53.009Z,75.04
2022-08-29T07:44:21.809Z,74.76
2022-08-29T07:46:50.641Z,74.77
2022-08-29T07:49:19.289Z,75.06
2022-08-29T07:51:48.312Z,75.11
2022-08-29T07:54:18.814Z,75.08
2022-08-29T07:56:49.831Z,74.54
2022-08-29T07:59:20.182Z,74.60
2022-08-29T08:01:49.714Z,74.34
2022-08-29T08:04:18.252Z,74.43
2022-08-29T08:06:48.110Z,74.02
2022-08-29T08:09:16.512Z,74.81
2022-08-29T08:11:44.867Z,74.49
2022-08-29T08:14:15.143Z,74.69
2022-08-29T08:16:44.845Z,74.40
2022-08-29T08:19:14.127Z,74.61
2022-08-29T08:21:49.547Z,74.17
2022-08-29T08:24:19.989Z,74.40
2022-08-29T08:26:50.250Z,73.99
2022-08-29T08:29:19.954Z,74.03
2022-08-29T08:31:51.984Z,73.50
2022-08-29T08:34:20.722Z,73.28
2022-08-29T08:36:50.443Z,72.85
2022-08-29T08:39:20.936Z,72.50
2022-08-29T08:41:57.601Z,72.51
2022-08-29T08:44:51.467Z,71.70
2022-08-29T08:47:27.170Z,71.52
2022-08-29T08:50:01.066Z,71.79
2022-08-29T08:52:38.252Z,71.55
2022-08-29T08:55:15.463Z,71.37
2022-08-29T08:57:51.106Z,71.16
2022-08-29T09:00:21.611Z,71.46
2022-08-29T09:03:03.788Z,71.33
2022-08-29T09:05:48.589Z,71.54
2022-08-29T09:08:30.259Z,72.11
2022-08-29T09:11:04.562Z,72.19
2022-08-29T09:13:46.699Z,72.16
2022-08-29T09:16:25.459Z,71.56
2022-08-29T09:18:57.245Z,71.64
2022-08-29T09:21:43.698Z,71.35
2022-08-29T09:24:21.730Z,71.34
2022-08-29T09:26:51.022Z,70.96
2022-08-29T09:29:21.134Z,70.81
2022-08-29T09:32:07.284Z,70.85
2022-08-29T09:35:04.438Z,70.46
2022-08-29T09:37:30.371Z,69.78
2022-08-29T09:40:02.831Z,69.24
2022-08-29T09:42:35.776Z,69.41
2022-08-29T09:45:16.171Z,69.51
2022-08-29T09:47:46.447Z,69.06
2022-08-29T09:50:24.906Z,68.82
2022-08-29T09:52:55.411Z,68.71
2022-08-29T09:55:29.263Z,68.41
2022-08-29T09:58:02.698Z,67.89
2022-08-29T10:00:35.162Z,67.73
2022-08-29T10:03:07.321Z,66.97
2022-08-29T10:05:41.726Z,66.87
2022-08-29T10:08:27.510Z,66.27
2022-08-29T10:10:58.230Z,65.91
2022-08-29T10:13:34.898Z,65.86
2022-08-29T10:16:13.821Z,65.88
2022-08-29T10:18:49.773Z,65.67
2022-08-29T10:21:30.130Z,65.20
2022-08-29T10:24:14.697Z,64.70
2022-08-29T10:26:53.373Z,63.64
2022-08-29T10:29:33.257Z,62.86
2022-08-29T10:32:17.091Z,62.23
2022-08-29T10:35:03.182Z,61.26
2022-08-29T10:37:44.867Z,60.30
2022-08-29T10:40:19.897Z,59.77
2022-08-29T10:42:53.491Z,59.15
2022-08-29T10:45:30.673Z,58.03
2022-08-29T10:48:05.939Z,57.31
2022-08-29T10:50:44.414Z,57.47
2022-08-29T10:53:20.244Z,56.61
2022-08-29T10:55:55.174Z,55.92
2022-08-29T10:58:37.263Z,55.39
2022-08-29T11:01:13.954Z,54.80
2022-08-29T11:03:49.099Z,53.30
2022-08-29T11:06:22.681Z,52.93
2022-08-29T11:08:58.679Z,52.48
2022-08-29T11:11:29.957Z,52.03
2022-08-29T11:14:05.979Z,50.96
2022-08-29T11:16:41.044Z,51.11
2022-08-29T11:19:17.864Z,50.97
2022-08-29T11:21:55.531Z,50.31
2022-08-29T11:24:34.377Z,50.45
2022-08-29T11:27:11.038Z,50.52
2022-08-29T11:29:47.190Z,50.06
2022-08-29T11:32:24.696Z,49.04
2022-08-29T11:35:08.287Z,48.11
2022-08-29T11:38:05.330Z,47.71
2022-08-29T11:41:26.364Z,47.09
2022-08-29T11:43:42.672Z,45.96
2022-08-29T11:46:14.302Z,45.67
2022-08-29T11:48:44.758Z,45.35
2022-08-29T11:51:31.412Z,44.69
2022-08-29T11:54:48.713Z,44.73
2022-08-29T11:57:53.782Z,43.87
2022-08-29T12:00:38.049Z,43.39
2022-08-29T12:03:47.468Z,43.35
2022-08-29T12:06:22.703Z,42.79
2022-08-29T12:09:01.733Z,42.37
2022-08-29T12:12:10.775Z,41.40
2022-08-29T12:14:42.328Z,40.66
2022-08-29T12:17:58.102Z,39.79
2022-08-29T12:20:40.504Z,38.72
2022-08-29T12:23:21.177Z,38.89
2022-08-29T12:26:09.411Z,38.36
2022-08-29T12:28:47.947Z,38.06
2022-08-29T12:31:31.254Z,37.72
2022-08-29T12:34:23.447Z,37.02
2022-08-29T12:37:28.012Z,37.25
2022-08-29T12:40:28.114Z,37.25
2022-08-29T12:43:12.794Z,36.09
2022-08-29T12:45:44.400Z,35.50
2022-08-29T12:48:21.083Z,35.25
2022-08-29T12:50:50.398Z,34.75
2022-08-29T12:53:20.554Z,34.27
2022-08-29T12:55:51.893Z,33.84
2022-08-29T12:58:38.142Z,33.61
2022-08-29T13:01:10.891Z,33.36
2022-08-29T13:03:41.403Z,32.52
2022-08-29T13:06:14.520Z,32.27
2022-08-29T13:08:43.809Z,32.27
2022-08-29T13:11:13.702Z,32.23
2022-08-29T13:13:42.487Z,31.99
2022-08-29T13:16:24.847Z,31.61
2022-08-29T13:19:10.175Z,31.37
2022-08-29T13:21:39.501Z,30.88
2022-08-29T13:24:13.919Z,30.47
2022-08-29T13:27:05.610Z,30.31
2022-08-29T13:29:38.750Z,29.64
2022-08-29T13:32:23.988Z,29.46
2022-08-29T13:35:09.007Z,29.17
2022-08-29T13:37:40.744Z,28.81
2022-08-29T13:40:32.821Z,28.86
2022-08-29T13:43:02.639Z,28.51
2022-08-29T13:45:31.453Z,28.51
2022-08-29T13:48:12.696Z,28.37
2022-08-29T13:50:42.637Z,28.35
2022-08-29T13:53:11.736Z,28.07
2022-08-29T13:55:42.928Z,27.82
2022-08-29T13:58:14.997Z,27.26
2022-08-29T14:00:44.317Z,26.96
2022-08-29T14:03:16.817Z,27.21
2022-08-29T14:05:48.545Z,27.43
2022-08-29T14:08:17.789Z,27.27
2022-08-29T14:10:47.026Z,27.43
2022-08-29T14:13:15.441Z,27.38
2022-08-29T14:15:44.817Z,27.47
2022-08-29T14:18:13.709Z,27.29
2022-08-29T14:20:42.105Z,26.80
2022-08-29T14:23:12.535Z,26.83
2022-08-29T14:25:40.908Z,26.92
2022-08-29T14:28:09.667Z,26.83
2022-08-29T14:30:42.823Z,26.41
2022-08-29T14:33:23.785Z,26.39
2022-08-29T14:35:53.087Z,26.37
2022-08-29T14:38:22.874Z,26.13
2022-08-29T14:40:52.302Z,26.31
2022-08-29T14:43:20.851Z,26.16
2022-08-29T14:45:50.184Z,26.61
2022-08-29T14:48:18.735Z,26.68
2022-08-29T14:50:47.887Z,26.26
2022-08-29T14:53:16.719Z,26.28
2022-08-29T14:55:46.440Z,26.39
2022-08-29T14:58:15.794Z,26.54
2022-08-29T15:00:44.366Z,26.46
2022-08-29T15:03:14.480Z,26.39
2022-08-29T15:05:43.692Z,26.52
2022-08-29T15:08:16.102Z,26.59
2022-08-29T15:10:45.885Z,26.41
2022-08-29T15:13:15.432Z,26.45
2022-08-29T15:15:44.317Z,26.48
2022-08-29T15:18:26.018Z,26.38
2022-08-29T15:21:04.745Z,26.29
2022-08-29T15:23:34.185Z,26.67
2022-08-29T15:26:04.334Z,27.02
2022-08-29T15:28:32.708Z,26.87
2022-08-29T15:31:01.919Z,26.97
2022-08-29T15:33:30.343Z,26.99
2022-08-29T15:35:59.594Z,26.88
2022-08-29T15:38:27.935Z,26.90
2022-08-29T15:40:57.163Z,26.84
2022-08-29T15:43:28.256Z,26.96
2022-08-29T15:45:59.895Z,26.67
2022-08-29T15:48:28.690Z,26.89
2022-08-29T15:50:57.090Z,27.09
2022-08-29T15:53:26.530Z,27.37
2022-08-29T15:55:54.876Z,27.42
2022-08-29T15:58:23.631Z,27.48
2022-08-29T16:00:53.678Z,27.61
2022-08-29T16:03:22.085Z,27.63
2022-08-29T16:05:51.334Z,27.51
2022-08-29T16:08:20.159Z,27.67
2022-08-29T16:10:50.777Z,27.68
2022-08-29T16:13:19.898Z,27.57
2022-08-29T16:15:49.093Z,28.11
2022-08-29T16:18:19.612Z,27.96
2022-08-29T16:20:48.466Z,28.08
2022-08-29T16:23:19.016Z,28.77
2022-08-29T16:25:49.322Z,28.80
2022-08-29T16:28:19.147Z,28.45
2022-08-29T16:30:50.070Z,28.46
2022-08-29T16:33:19.818Z,28.68
2022-08-29T16:35:48.761Z,29.06
2022-08-29T16:38:17.839Z,28.71
2022-08-29T16:40:46.790Z,29.25
2022-08-29T16:43:15.418Z,29.42
2022-08-29T16:45:44.578Z,29.28
2022-08-29T16:48:15.454Z,29.96
2022-08-29T16:50:47.788Z,29.98
2022-08-29T16:53:16.198Z,30.21
2022-08-29T16:55:45.383Z,30.52
2022-08-29T16:58:31.474Z,30.99
2022-08-29T17:01:00.858Z,30.67
2022-08-29T17:03:29.356Z,30.79
2022-08-29T17:05:59.963Z,31.54
2022-08-29T17:08:27.274Z,31.78
2022-08-29T17:10:55.741Z,31.92
2022-08-29T17:13:23.105Z,32.26
2022-08-29T17:15:50.875Z,32.89
2022-08-29T17:18:20.720Z,32.99
2022-08-29T17:20:49.387Z,33.66
2022-08-29T17:23:19.556Z,33.80
2022-08-29T17:25:47.999Z,34.13
2022-08-29T17:28:18.684Z,34.53
2022-08-29T17:30:56.053Z,34.78
2022-08-29T17:33:24.483Z,35.02
2022-08-29T17:35:54.047Z,35.62
2022-08-29T17:38:24.318Z,36.09
2022-08-29T17:40:57.410Z,36.89
2022-08-29T17:43:27.390Z,37.57
2022-08-29T17:45:57.719Z,37.45
2022-08-29T17:48:26.146Z,37.66
2022-08-29T17:50:54.550Z,38.55
2022-08-29T17:53:25.038Z,39.08
2022-08-29T17:55:53.892Z,39.64
2022-08-29T17:58:23.302Z,40.00
2022-08-29T18:00:52.378Z,40.15
2022-08-29T18:03:21.725Z,40.42
2022-08-29T18:05:50.131Z,40.47
2022-08-29T18:08:18.525Z,40.78
2022-08-29T18:10:48.247Z,41.06
2022-08-29T18:13:20.993Z,41.21
2022-08-29T18:15:52.690Z,41.58
2022-08-29T18:18:21.343Z,42.44
2022-08-29T18:20:50.808Z,42.70
2022-08-29T18:23:19.311Z,43.00
2022-08-29T18:25:49.497Z,43.29
2022-08-29T18:28:17.999Z,43.62
2022-08-29T18:30:46.902Z,43.52
2022-08-29T18:33:15.346Z,43.86
2022-08-29T18:35:44.151Z,44.06
2022-08-29T18:38:13.214Z,44.29
2022-08-29T18:40:41.862Z,44.45
2022-08-29T18:43:12.163Z,44.77
2022-08-29T18:45:43.340Z,45.08
2022-08-29T18:48:11.884Z,45.24
2022-08-29T18:50:41.137Z,45.15
2022-08-29T18:53:12.635Z,45.19
2022-08-29T18:55:47.257Z,45.05
2022-08-29T18:58:22.375Z,45.23
2022-08-29T19:00:51.192Z,45.43
2022-08-29T19:03:21.097Z,45.61
2022-08-29T19:05:52.267Z,45.86
2022-08-29T19:08:23.565Z,45.92
2022-08-29T19:10:53.941Z,46.20
2022-08-29T19:13:25.590Z,46.36
2022-08-29T19:15:56.938Z,46.48
2022-08-29T19:18:25.999Z,46.70
2022-08-29T19:21:02.733Z,46.89
2022-08-29T19:23:33.266Z,46.83
2022-08-29T19:26:04.078Z,47.13
2022-08-29T19:28:34.283Z,47.33
2022-08-29T19:31:04.508Z,47.29
2022-08-29T19:33:34.154Z,47.58
2022-08-29T19:36:03.872Z,47.77
2022-08-29T19:38:32.839Z,48.13
2022-08-29T19:41:01.627Z,48.17
2022-08-29T19:43:33.430Z,48.18
2022-08-29T19:46:09.717Z,48.76
2022-08-29T19:48:39.268Z,48.39
2022-08-29T19:51:10.475Z,48.75
2022-08-29T19:53:42.808Z,48.90
2022-08-29T19:56:13.679Z,48.80
2022-08-29T19:58:42.633Z,49.11
2022-08-29T20:01:12.817Z,48.89
2022-08-29T20:03:42.625Z,48.89
2022-08-29T20:06:12.244Z,49.24
2022-08-29T20:08:42.996Z,49.52
2022-08-29T20:11:12.624Z,49.56
2022-08-29T20:13:42.244Z,49.62
2022-08-29T20:16:16.873Z,49.61
2022-08-29T20:18:47.394Z,49.96
2022-08-29T20:21:19.222Z,49.96
2022-08-29T20:23:49.448Z,50.35
2022-08-29T20:26:19.285Z,50.09
2022-08-29T20:28:49.432Z,50.34
2022-08-29T20:31:20.318Z,50.34
2022-08-29T20:33:49.569Z,50.28
2022-08-29T20:36:38.980Z,50.58
2022-08-29T20:39:08.738Z,50.37
2022-08-29T20:41:37.845Z,50.58
2022-08-29T20:44:09.970Z,50.72
2022-08-29T20:46:41.253Z,50.89
2022-08-29T20:49:13.862Z,51.24
2022-08-29T20:51:44.859Z,51.53
2022-08-29T20:54:14.185Z,51.27
2022-08-29T20:56:42.970Z,51.72
2022-08-29T20:59:11.533Z,51.76
2022-08-29T21:01:41.690Z,51.98
2022-08-29T21:04:29.571Z,51.86
2022-08-29T21:07:00.552Z,52.05
2022-08-29T21:09:29.463Z,52.18
2022-08-29T21:11:58.842Z,52.12
2022-08-29T21:14:28.448Z,52.54
2022-08-29T21:16:58.662Z,52.35
2022-08-29T21:19:30.608Z,52.89
2022-08-29T21:22:01.032Z,52.76
2022-08-29T21:24:31.374Z,52.99
2022-08-29T21:27:00.135Z,53.27
2022-08-29T21:29:28.750Z,53.40
2022-08-29T21:31:59.202Z,53.01
2022-08-29T21:34:27.630Z,53.44
2022-08-29T21:36:56.777Z,53.17
2022-08-29T21:39:28.563Z,53.47
2022-08-29T21:42:02.698Z,53.40
2022-08-29T21:44:31.959Z,53.92
2022-08-29T21:47:03.477Z,53.81
2022-08-29T21:49:31.863Z,54.04
2022-08-29T21:52:01.036Z,54.33
2022-08-29T21:54:30.187Z,54.03
2022-08-29T21:56:58.511Z,54.14
2022-08-29T21:59:28.638Z,54.09
2022-08-29T22:01:57.557Z,54.25
2022-08-29T22:04:28.901Z,54.19
2022-08-29T22:06:59.681Z,54.53
2022-08-29T22:09:29.731Z,54.63
2022-08-29T22:11:59.611Z,54.67
2022-08-29T22:14:42.986Z,54.96
2022-08-29T22:17:12.161Z,54.53
2022-08-29T22:19:41.978Z,54.91
2022-08-29T22:22:11.289Z,55.04
2022-08-29T22:24:39.717Z,54.70
2022-08-29T22:27:09.112Z,54.71
2022-08-29T22:29:38.003Z,55.36
2022-08-29T22:32:07.534Z,55.44
2022-08-29T22:34:35.942Z,55.39
2022-08-29T22:37:05.651Z,55.65
2022-08-29T22:39:34.840Z,55.46
2022-08-29T22:42:03.243Z,55.62
2022-08-29T22:44:59.829Z,55.79
2022-08-29T22:47:21.503Z,55.36
2022-08-29T22:49:49.818Z,56.08
2022-08-29T22:52:20.927Z,56.00
2022-08-29T22:54:49.747Z,56.53
2022-08-29T22:57:20.387Z,56.94
2022-08-29T22:59:49.540Z,57.00
2022-08-29T23:02:20.002Z,56.96
2022-08-29T23:04:50.324Z,56.87
2022-08-29T23:07:20.707Z,56.38
2022-08-29T23:09:51.039Z,56.33
2022-08-29T23:12:19.939Z,56.38
2022-08-29T23:14:48.832Z,56.39
2022-08-29T23:17:18.146Z,56.59
2022-08-29T23:19:47.117Z,56.63
2022-08-29T23:22:20.522Z,56.86
2022-08-29T23:24:53.797Z,56.74
2022-08-29T23:27:29.106Z,56.94
2022-08-29T23:29:58.420Z,57.39
2022-08-29T23:32:28.811Z,57.08
2022-08-29T23:34:57.734Z,57.15
2022-08-29T23:37:27.852Z,57.34
2022-08-29T23:39:56.681Z,57.35
2022-08-29T23:42:25.792Z,56.85
2022-08-29T23:44:54.979Z,57.06
2022-08-29T23:47:23.643Z,57.10
2022-08-29T23:49:53.034Z,57.12
2022-08-29T23:52:21.357Z,57.04
2022-08-29T23:54:51.663Z,57.39
2022-08-29T23:57:19.951Z,57.29
